sensor_id;sensor_type;location;lat;lon;timestamp;P1;durP1;ratioP1;P2;durP2;ratioP2
6205;SDS011;3136;48.788;9.772;2023-06-22T00:02:24;9.57;;;7.90;;
6205;SDS011;3136;48.788;9.772;2023-06-22T00:04:50;9.60;;;8.13;;
6205;SDS011;3136;48.788;9.772;2023-06-22T00:07:15;10.30;;;7.87;;
6205;SDS011;3136;48.788;9.772;2023-06-22T00:09:41;11.17;;;7.93;;
6205;SDS011;3136;48.788;9.772;2023-06-22T00:12:07;11.00;;;8.10;;
6205;SDS011;3136;48.788;9.772;2023-06-22T00:14:32;9.53;;;7.63;;
6205;SDS011;3136;48.788;9.772;2023-06-22T00:16:58;8.70;;;7.60;;
6205;SDS011;3136;48.788;9.772;2023-06-22T00:19:24;11.13;;;8.40;;
6205;SDS011;3136;48.788;9.772;2023-06-22T00:21:50;11.70;;;7.80;;
6205;SDS011;3136;48.788;9.772;2023-06-22T00:24:21;9.13;;;8.03;;
6205;SDS011;3136;48.788;9.772;2023-06-22T00:26:49;10.20;;;7.70;;
6205;SDS011;3136;48.788;9.772;2023-06-22T00:29:15;10.43;;;8.00;;
6205;SDS011;3136;48.788;9.772;2023-06-22T00:31:42;11.77;;;8.00;;
6205;SDS011;3136;48.788;9.772;2023-06-22T00:34:07;11.97;;;7.77;;
6205;SDS011;3136;48.788;9.772;2023-06-22T00:36:34;12.30;;;7.67;;
6205;SDS011;3136;48.788;9.772;2023-06-22T00:39:00;13.43;;;8.10;;
6205;SDS011;3136;48.788;9.772;2023-06-22T00:41:25;10.87;;;7.37;;
6205;SDS011;3136;48.788;9.772;2023-06-22T00:43:53;8.67;;;6.87;;
6205;SDS011;3136;48.788;9.772;2023-06-22T00:46:19;12.10;;;7.30;;
6205;SDS011;3136;48.788;9.772;2023-06-22T00:48:45;8.93;;;7.70;;
6205;SDS011;3136;48.788;9.772;2023-06-22T00:51:11;10.50;;;7.50;;
6205;SDS011;3136;48.788;9.772;2023-06-22T00:53:36;8.47;;;7.60;;
6205;SDS011;3136;48.788;9.772;2023-06-22T00:56:02;8.57;;;7.40;;
6205;SDS011;3136;48.788;9.772;2023-06-22T00:58:30;15.50;;;8.17;;
6205;SDS011;3136;48.788;9.772;2023-06-22T01:00:56;11.37;;;8.13;;
6205;SDS011;3136;48.788;9.772;2023-06-22T01:03:22;9.17;;;7.30;;
6205;SDS011;3136;48.788;9.772;2023-06-22T01:05:47;9.17;;;7.63;;
6205;SDS011;3136;48.788;9.772;2023-06-22T01:08:26;10.47;;;7.40;;
6205;SDS011;3136;48.788;9.772;2023-06-22T01:11:01;9.30;;;7.70;;
6205;SDS011;3136;48.788;9.772;2023-06-22T01:13:57;10.30;;;7.63;;
6205;SDS011;3136;48.788;9.772;2023-06-22T01:16:28;11.23;;;7.37;;
6205;SDS011;3136;48.788;9.772;2023-06-22T01:19:00;11.10;;;7.90;;
6205;SDS011;3136;48.788;9.772;2023-06-22T01:21:30;9.40;;;7.77;;
6205;SDS011;3136;48.788;9.772;2023-06-22T01:24:04;9.70;;;7.87;;
6205;SDS011;3136;48.788;9.772;2023-06-22T01:29:23;8.73;;;7.50;;
6205;SDS011;3136;48.788;9.772;2023-06-22T01:31:50;8.57;;;7.67;;
6205;SDS011;3136;48.788;9.772;2023-06-22T01:34:18;11.73;;;7.70;;
6205;SDS011;3136;48.788;9.772;2023-06-22T01:36:44;8.93;;;7.60;;
6205;SDS011;3136;48.788;9.772;2023-06-22T01:39:11;9.33;;;7.60;;
6205;SDS011;3136;48.788;9.772;2023-06-22T01:41:37;10.47;;;7.93;;
6205;SDS011;3136;48.788;9.772;2023-06-22T01:44:05;9.80;;;7.47;;
6205;SDS011;3136;48.788;9.772;2023-06-22T01:46:34;10.17;;;7.77;;
6205;SDS011;3136;48.788;9.772;2023-06-22T01:49:01;13.13;;;8.43;;
6205;SDS011;3136;48.788;9.772;2023-06-22T01:51:28;8.87;;;7.93;;
6205;SDS011;3136;48.788;9.772;2023-06-22T01:53:53;10.53;;;7.80;;
6205;SDS011;3136;48.788;9.772;2023-06-22T01:56:19;10.13;;;7.93;;
6205;SDS011;3136;48.788;9.772;2023-06-22T01:58:48;9.77;;;8.00;;
6205;SDS011;3136;48.788;9.772;2023-06-22T02:01:23;11.73;;;8.20;;
6205;SDS011;3136;48.788;9.772;2023-06-22T02:06:39;11.07;;;8.20;;
6205;SDS011;3136;48.788;9.772;2023-06-22T02:09:12;12.70;;;8.20;;
6205;SDS011;3136;48.788;9.772;2023-06-22T02:11:42;8.83;;;7.17;;
6205;SDS011;3136;48.788;9.772;2023-06-22T02:14:10;8.83;;;7.70;;
6205;SDS011;3136;48.788;9.772;2023-06-22T02:16:37;11.77;;;7.50;;
6205;SDS011;3136;48.788;9.772;2023-06-22T02:19:03;11.47;;;7.30;;
6205;SDS011;3136;48.788;9.772;2023-06-22T02:21:31;8.13;;;7.10;;
6205;SDS011;3136;48.788;9.772;2023-06-22T02:23:57;9.70;;;6.90;;
6205;SDS011;3136;48.788;9.772;2023-06-22T02:26:23;9.40;;;7.47;;
6205;SDS011;3136;48.788;9.772;2023-06-22T02:28:50;8.80;;;7.27;;
6205;SDS011;3136;48.788;9.772;2023-06-22T02:31:15;13.23;;;7.40;;
6205;SDS011;3136;48.788;9.772;2023-06-22T02:33:41;10.73;;;7.70;;
6205;SDS011;3136;48.788;9.772;2023-06-22T02:36:08;10.37;;;7.10;;
6205;SDS011;3136;48.788;9.772;2023-06-22T02:38:34;8.03;;;7.23;;
6205;SDS011;3136;48.788;9.772;2023-06-22T02:41:01;13.93;;;7.57;;
6205;SDS011;3136;48.788;9.772;2023-06-22T02:43:27;8.13;;;7.33;;
6205;SDS011;3136;48.788;9.772;2023-06-22T02:45:53;13.73;;;7.30;;
6205;SDS011;3136;48.788;9.772;2023-06-22T02:48:18;9.47;;;7.33;;
6205;SDS011;3136;48.788;9.772;2023-06-22T02:50:44;10.70;;;7.63;;
6205;SDS011;3136;48.788;9.772;2023-06-22T02:53:09;8.87;;;6.90;;
6205;SDS011;3136;48.788;9.772;2023-06-22T02:55:35;9.70;;;7.77;;
6205;SDS011;3136;48.788;9.772;2023-06-22T02:58:01;9.33;;;7.63;;
6205;SDS011;3136;48.788;9.772;2023-06-22T03:00:29;12.07;;;7.63;;
6205;SDS011;3136;48.788;9.772;2023-06-22T03:02:55;12.03;;;7.30;;
6205;SDS011;3136;48.788;9.772;2023-06-22T03:05:22;11.23;;;7.30;;
6205;SDS011;3136;48.788;9.772;2023-06-22T03:07:48;10.03;;;6.97;;
6205;SDS011;3136;48.788;9.772;2023-06-22T03:10:13;8.53;;;7.13;;
6205;SDS011;3136;48.788;9.772;2023-06-22T03:12:40;9.60;;;7.20;;
6205;SDS011;3136;48.788;9.772;2023-06-22T03:15:07;10.20;;;7.10;;
6205;SDS011;3136;48.788;9.772;2023-06-22T03:17:35;9.97;;;6.97;;
6205;SDS011;3136;48.788;9.772;2023-06-22T03:20:01;10.07;;;7.47;;
6205;SDS011;3136;48.788;9.772;2023-06-22T03:22:34;9.97;;;7.03;;
6205;SDS011;3136;48.788;9.772;2023-06-22T03:25:03;8.53;;;7.10;;
6205;SDS011;3136;48.788;9.772;2023-06-22T03:27:29;9.60;;;7.00;;
6205;SDS011;3136;48.788;9.772;2023-06-22T03:29:56;9.97;;;6.87;;
6205;SDS011;3136;48.788;9.772;2023-06-22T03:32:22;10.47;;;6.97;;
6205;SDS011;3136;48.788;9.772;2023-06-22T03:34:48;8.27;;;7.17;;
6205;SDS011;3136;48.788;9.772;2023-06-22T03:37:14;8.20;;;7.40;;
6205;SDS011;3136;48.788;9.772;2023-06-22T03:39:40;10.20;;;7.17;;
6205;SDS011;3136;48.788;9.772;2023-06-22T03:42:06;8.47;;;7.03;;
6205;SDS011;3136;48.788;9.772;2023-06-22T03:44:32;10.33;;;7.33;;
6205;SDS011;3136;48.788;9.772;2023-06-22T03:46:58;8.87;;;7.97;;
6205;SDS011;3136;48.788;9.772;2023-06-22T03:49:23;14.23;;;7.73;;
6205;SDS011;3136;48.788;9.772;2023-06-22T03:51:49;9.87;;;7.93;;
6205;SDS011;3136;48.788;9.772;2023-06-22T03:54:14;8.77;;;7.87;;
6205;SDS011;3136;48.788;9.772;2023-06-22T03:56:40;14.07;;;8.50;;
6205;SDS011;3136;48.788;9.772;2023-06-22T03:59:06;8.77;;;7.20;;
6205;SDS011;3136;48.788;9.772;2023-06-22T04:01:31;8.43;;;7.53;;
6205;SDS011;3136;48.788;9.772;2023-06-22T04:03:57;9.50;;;7.70;;
6205;SDS011;3136;48.788;9.772;2023-06-22T04:06:22;8.63;;;7.57;;
6205;SDS011;3136;48.788;9.772;2023-06-22T04:08:48;10.37;;;8.20;;
6205;SDS011;3136;48.788;9.772;2023-06-22T04:11:16;13.17;;;8.63;;
6205;SDS011;3136;48.788;9.772;2023-06-22T04:13:43;12.10;;;8.37;;
6205;SDS011;3136;48.788;9.772;2023-06-22T04:16:08;11.60;;;7.83;;
6205;SDS011;3136;48.788;9.772;2023-06-22T04:18:34;8.90;;;8.00;;
6205;SDS011;3136;48.788;9.772;2023-06-22T04:21:00;10.70;;;7.90;;
6205;SDS011;3136;48.788;9.772;2023-06-22T04:23:27;12.53;;;7.83;;
6205;SDS011;3136;48.788;9.772;2023-06-22T04:25:52;10.03;;;7.77;;
6205;SDS011;3136;48.788;9.772;2023-06-22T04:28:18;10.23;;;7.33;;
6205;SDS011;3136;48.788;9.772;2023-06-22T04:30:43;9.00;;;7.83;;
6205;SDS011;3136;48.788;9.772;2023-06-22T04:33:15;10.97;;;8.20;;
6205;SDS011;3136;48.788;9.772;2023-06-22T04:35:44;10.53;;;7.87;;
6205;SDS011;3136;48.788;9.772;2023-06-22T04:38:11;9.83;;;7.90;;
6205;SDS011;3136;48.788;9.772;2023-06-22T04:40:38;12.00;;;8.43;;
6205;SDS011;3136;48.788;9.772;2023-06-22T04:43:04;13.57;;;7.57;;
6205;SDS011;3136;48.788;9.772;2023-06-22T04:45:31;8.63;;;7.53;;
6205;SDS011;3136;48.788;9.772;2023-06-22T04:47:57;8.60;;;7.33;;
6205;SDS011;3136;48.788;9.772;2023-06-22T04:50:23;10.10;;;7.37;;
6205;SDS011;3136;48.788;9.772;2023-06-22T04:52:49;7.87;;;6.90;;
6205;SDS011;3136;48.788;9.772;2023-06-22T04:55:15;11.30;;;7.27;;
6205;SDS011;3136;48.788;9.772;2023-06-22T04:57:43;8.17;;;7.33;;
6205;SDS011;3136;48.788;9.772;2023-06-22T05:00:14;10.03;;;7.73;;
6205;SDS011;3136;48.788;9.772;2023-06-22T05:02:42;12.23;;;7.83;;
6205;SDS011;3136;48.788;9.772;2023-06-22T05:05:10;11.90;;;8.30;;
6205;SDS011;3136;48.788;9.772;2023-06-22T05:07:38;12.37;;;8.17;;
6205;SDS011;3136;48.788;9.772;2023-06-22T05:10:08;12.50;;;9.37;;
6205;SDS011;3136;48.788;9.772;2023-06-22T05:12:38;12.90;;;9.83;;
6205;SDS011;3136;48.788;9.772;2023-06-22T05:15:04;10.70;;;9.07;;
6205;SDS011;3136;48.788;9.772;2023-06-22T05:17:31;12.27;;;8.83;;
6205;SDS011;3136;48.788;9.772;2023-06-22T05:19:57;10.67;;;8.50;;
6205;SDS011;3136;48.788;9.772;2023-06-22T05:22:22;11.17;;;8.70;;
6205;SDS011;3136;48.788;9.772;2023-06-22T05:24:48;13.50;;;8.20;;
6205;SDS011;3136;48.788;9.772;2023-06-22T05:27:13;13.13;;;8.93;;
6205;SDS011;3136;48.788;9.772;2023-06-22T05:29:39;10.77;;;7.67;;
6205;SDS011;3136;48.788;9.772;2023-06-22T05:32:05;12.30;;;7.80;;
6205;SDS011;3136;48.788;9.772;2023-06-22T05:34:31;9.07;;;7.50;;
6205;SDS011;3136;48.788;9.772;2023-06-22T05:36:57;7.33;;;6.60;;
6205;SDS011;3136;48.788;9.772;2023-06-22T05:39:26;9.33;;;7.17;;
6205;SDS011;3136;48.788;9.772;2023-06-22T05:41:51;8.63;;;7.20;;
6205;SDS011;3136;48.788;9.772;2023-06-22T05:44:17;8.27;;;7.03;;
6205;SDS011;3136;48.788;9.772;2023-06-22T05:46:44;9.67;;;7.10;;
6205;SDS011;3136;48.788;9.772;2023-06-22T05:49:11;8.33;;;6.80;;
6205;SDS011;3136;48.788;9.772;2023-06-22T05:51:37;12.77;;;7.30;;
6205;SDS011;3136;48.788;9.772;2023-06-22T05:54:03;12.07;;;7.43;;
6205;SDS011;3136;48.788;9.772;2023-06-22T05:56:29;8.53;;;7.00;;
6205;SDS011;3136;48.788;9.772;2023-06-22T05:58:55;9.33;;;6.40;;
6205;SDS011;3136;48.788;9.772;2023-06-22T06:01:20;10.17;;;6.80;;
6205;SDS011;3136;48.788;9.772;2023-06-22T06:03:46;8.57;;;6.60;;
6205;SDS011;3136;48.788;9.772;2023-06-22T06:06:11;10.00;;;6.13;;
6205;SDS011;3136;48.788;9.772;2023-06-22T06:08:38;9.03;;;6.13;;
6205;SDS011;3136;48.788;9.772;2023-06-22T06:11:04;7.50;;;5.30;;
6205;SDS011;3136;48.788;9.772;2023-06-22T06:13:29;8.33;;;5.67;;
6205;SDS011;3136;48.788;9.772;2023-06-22T06:15:55;10.03;;;6.07;;
6205;SDS011;3136;48.788;9.772;2023-06-22T06:18:22;7.00;;;5.20;;
6205;SDS011;3136;48.788;9.772;2023-06-22T06:20:47;7.77;;;5.30;;
6205;SDS011;3136;48.788;9.772;2023-06-22T06:23:13;8.53;;;5.70;;
6205;SDS011;3136;48.788;9.772;2023-06-22T06:25:38;9.27;;;5.33;;
6205;SDS011;3136;48.788;9.772;2023-06-22T06:28:04;9.37;;;5.13;;
6205;SDS011;3136;48.788;9.772;2023-06-22T06:30:30;8.80;;;5.50;;
6205;SDS011;3136;48.788;9.772;2023-06-22T06:32:56;9.10;;;5.37;;
6205;SDS011;3136;48.788;9.772;2023-06-22T06:35:21;9.03;;;5.30;;
6205;SDS011;3136;48.788;9.772;2023-06-22T06:37:48;6.73;;;5.00;;
6205;SDS011;3136;48.788;9.772;2023-06-22T06:40:15;7.07;;;5.00;;
6205;SDS011;3136;48.788;9.772;2023-06-22T06:42:43;13.00;;;5.23;;
6205;SDS011;3136;48.788;9.772;2023-06-22T06:45:11;6.63;;;4.50;;
6205;SDS011;3136;48.788;9.772;2023-06-22T06:47:38;10.63;;;5.00;;
6205;SDS011;3136;48.788;9.772;2023-06-22T06:50:04;8.13;;;5.00;;
6205;SDS011;3136;48.788;9.772;2023-06-22T06:52:30;8.97;;;4.83;;
6205;SDS011;3136;48.788;9.772;2023-06-22T06:54:56;7.83;;;4.57;;
6205;SDS011;3136;48.788;9.772;2023-06-22T06:57:21;6.03;;;4.27;;
6205;SDS011;3136;48.788;9.772;2023-06-22T06:59:47;5.57;;;4.07;;
6205;SDS011;3136;48.788;9.772;2023-06-22T07:02:14;8.10;;;3.77;;
6205;SDS011;3136;48.788;9.772;2023-06-22T07:04:40;6.10;;;4.27;;
6205;SDS011;3136;48.788;9.772;2023-06-22T07:07:06;7.53;;;4.20;;
6205;SDS011;3136;48.788;9.772;2023-06-22T07:09:32;7.13;;;4.00;;
6205;SDS011;3136;48.788;9.772;2023-06-22T07:11:58;5.73;;;4.17;;
6205;SDS011;3136;48.788;9.772;2023-06-22T07:14:23;6.43;;;4.10;;
6205;SDS011;3136;48.788;9.772;2023-06-22T07:16:49;7.57;;;4.03;;
6205;SDS011;3136;48.788;9.772;2023-06-22T07:19:14;7.93;;;4.20;;
6205;SDS011;3136;48.788;9.772;2023-06-22T07:21:40;8.60;;;3.37;;
6205;SDS011;3136;48.788;9.772;2023-06-22T07:24:06;6.50;;;3.33;;
6205;SDS011;3136;48.788;9.772;2023-06-22T07:26:32;6.77;;;3.70;;
6205;SDS011;3136;48.788;9.772;2023-06-22T07:28:58;6.70;;;3.90;;
6205;SDS011;3136;48.788;9.772;2023-06-22T07:31:24;7.57;;;3.20;;
6205;SDS011;3136;48.788;9.772;2023-06-22T07:33:50;6.53;;;3.23;;
6205;SDS011;3136;48.788;9.772;2023-06-22T07:36:16;7.27;;;3.67;;
6205;SDS011;3136;48.788;9.772;2023-06-22T07:38:42;7.50;;;3.27;;
6205;SDS011;3136;48.788;9.772;2023-06-22T07:41:08;5.97;;;3.50;;
6205;SDS011;3136;48.788;9.772;2023-06-22T07:43:34;7.87;;;3.37;;
6205;SDS011;3136;48.788;9.772;2023-06-22T07:46:02;7.50;;;3.60;;
6205;SDS011;3136;48.788;9.772;2023-06-22T07:48:28;6.27;;;3.70;;
6205;SDS011;3136;48.788;9.772;2023-06-22T07:50:54;5.87;;;3.30;;
6205;SDS011;3136;48.788;9.772;2023-06-22T07:53:20;7.00;;;3.57;;
6205;SDS011;3136;48.788;9.772;2023-06-22T07:55:47;5.73;;;3.10;;
6205;SDS011;3136;48.788;9.772;2023-06-22T07:58:12;7.63;;;3.37;;
6205;SDS011;3136;48.788;9.772;2023-06-22T08:00:38;9.33;;;3.03;;
6205;SDS011;3136;48.788;9.772;2023-06-22T08:03:04;6.13;;;3.50;;
6205;SDS011;3136;48.788;9.772;2023-06-22T08:05:30;8.50;;;3.17;;
6205;SDS011;3136;48.788;9.772;2023-06-22T08:07:56;7.93;;;3.20;;
6205;SDS011;3136;48.788;9.772;2023-06-22T08:10:22;6.80;;;3.40;;
6205;SDS011;3136;48.788;9.772;2023-06-22T08:12:47;8.80;;;3.20;;
6205;SDS011;3136;48.788;9.772;2023-06-22T08:15:13;8.20;;;3.27;;
6205;SDS011;3136;48.788;9.772;2023-06-22T08:17:39;9.73;;;3.47;;
6205;SDS011;3136;48.788;9.772;2023-06-22T08:20:05;7.03;;;3.20;;
6205;SDS011;3136;48.788;9.772;2023-06-22T08:22:35;10.63;;;3.73;;
6205;SDS011;3136;48.788;9.772;2023-06-22T08:25:02;10.07;;;3.70;;
6205;SDS011;3136;48.788;9.772;2023-06-22T08:27:29;10.07;;;3.70;;
6205;SDS011;3136;48.788;9.772;2023-06-22T08:29:57;8.83;;;3.40;;
6205;SDS011;3136;48.788;9.772;2023-06-22T08:32:24;8.67;;;3.40;;
6205;SDS011;3136;48.788;9.772;2023-06-22T08:34:51;8.07;;;3.50;;
6205;SDS011;3136;48.788;9.772;2023-06-22T08:37:17;7.13;;;3.77;;
6205;SDS011;3136;48.788;9.772;2023-06-22T08:39:43;13.40;;;4.03;;
6205;SDS011;3136;48.788;9.772;2023-06-22T08:42:09;9.00;;;4.30;;
6205;SDS011;3136;48.788;9.772;2023-06-22T08:44:34;7.90;;;3.63;;
6205;SDS011;3136;48.788;9.772;2023-06-22T08:47:00;10.03;;;3.80;;
6205;SDS011;3136;48.788;9.772;2023-06-22T08:49:25;13.07;;;4.77;;
6205;SDS011;3136;48.788;9.772;2023-06-22T08:51:51;10.45;;;3.60;;
6205;SDS011;3136;48.788;9.772;2023-06-22T08:54:18;11.87;;;4.33;;
6205;SDS011;3136;48.788;9.772;2023-06-22T08:56:44;9.33;;;4.03;;
6205;SDS011;3136;48.788;9.772;2023-06-22T08:59:09;9.32;;;3.88;;
6205;SDS011;3136;48.788;9.772;2023-06-22T09:01:35;13.70;;;4.40;;
6205;SDS011;3136;48.788;9.772;2023-06-22T09:04:01;10.47;;;4.10;;
6205;SDS011;3136;48.788;9.772;2023-06-22T09:06:26;11.60;;;4.73;;
6205;SDS011;3136;48.788;9.772;2023-06-22T09:08:52;9.95;;;4.35;;
6205;SDS011;3136;48.788;9.772;2023-06-22T09:11:17;7.03;;;4.03;;
6205;SDS011;3136;48.788;9.772;2023-06-22T09:13:43;9.10;;;4.28;;
6205;SDS011;3136;48.788;9.772;2023-06-22T09:16:09;9.82;;;4.38;;
6205;SDS011;3136;48.788;9.772;2023-06-22T09:18:35;9.27;;;4.43;;
6205;SDS011;3136;48.788;9.772;2023-06-22T09:21:01;13.23;;;4.47;;
6205;SDS011;3136;48.788;9.772;2023-06-22T09:23:27;12.80;;;4.75;;
6205;SDS011;3136;48.788;9.772;2023-06-22T09:25:52;8.15;;;4.30;;
6205;SDS011;3136;48.788;9.772;2023-06-22T09:28:18;9.98;;;4.20;;
6205;SDS011;3136;48.788;9.772;2023-06-22T09:30:44;9.10;;;4.00;;
6205;SDS011;3136;48.788;9.772;2023-06-22T09:33:09;14.32;;;5.20;;
6205;SDS011;3136;48.788;9.772;2023-06-22T09:35:35;13.57;;;4.25;;
6205;SDS011;3136;48.788;9.772;2023-06-22T09:38:01;11.70;;;4.22;;
6205;SDS011;3136;48.788;9.772;2023-06-22T09:40:26;13.90;;;4.65;;
6205;SDS011;3136;48.788;9.772;2023-06-22T09:42:52;18.67;;;4.95;;
6205;SDS011;3136;48.788;9.772;2023-06-22T09:45:17;8.27;;;4.22;;
6205;SDS011;3136;48.788;9.772;2023-06-22T09:47:43;13.90;;;5.13;;
6205;SDS011;3136;48.788;9.772;2023-06-22T09:50:09;17.10;;;4.50;;
6205;SDS011;3136;48.788;9.772;2023-06-22T09:52:34;14.27;;;4.80;;
6205;SDS011;3136;48.788;9.772;2023-06-22T09:55:00;12.25;;;4.65;;
6205;SDS011;3136;48.788;9.772;2023-06-22T09:57:25;18.05;;;4.50;;
6205;SDS011;3136;48.788;9.772;2023-06-22T09:59:51;10.15;;;4.43;;
6205;SDS011;3136;48.788;9.772;2023-06-22T10:02:16;10.50;;;4.63;;
6205;SDS011;3136;48.788;9.772;2023-06-22T10:04:42;11.23;;;5.00;;
6205;SDS011;3136;48.788;9.772;2023-06-22T10:07:08;10.90;;;4.78;;
6205;SDS011;3136;48.788;9.772;2023-06-22T10:09:33;13.38;;;4.82;;
6205;SDS011;3136;48.788;9.772;2023-06-22T10:11:59;12.05;;;5.28;;
6205;SDS011;3136;48.788;9.772;2023-06-22T10:14:24;10.82;;;5.28;;
6205;SDS011;3136;48.788;9.772;2023-06-22T10:16:52;10.80;;;5.03;;
6205;SDS011;3136;48.788;9.772;2023-06-22T10:19:18;13.45;;;5.05;;
6205;SDS011;3136;48.788;9.772;2023-06-22T10:21:43;11.95;;;4.72;;
6205;SDS011;3136;48.788;9.772;2023-06-22T10:24:09;10.88;;;5.00;;
6205;SDS011;3136;48.788;9.772;2023-06-22T10:26:35;10.27;;;4.85;;
6205;SDS011;3136;48.788;9.772;2023-06-22T10:29:04;9.73;;;4.90;;
6205;SDS011;3136;48.788;9.772;2023-06-22T10:31:29;14.07;;;4.90;;
6205;SDS011;3136;48.788;9.772;2023-06-22T10:33:55;14.55;;;5.10;;
6205;SDS011;3136;48.788;9.772;2023-06-22T10:36:21;16.55;;;5.30;;
6205;SDS011;3136;48.788;9.772;2023-06-22T10:38:47;10.40;;;4.97;;
6205;SDS011;3136;48.788;9.772;2023-06-22T10:41:13;14.98;;;5.28;;
6205;SDS011;3136;48.788;9.772;2023-06-22T10:43:39;12.18;;;5.05;;
6205;SDS011;3136;48.788;9.772;2023-06-22T10:46:06;13.85;;;5.22;;
6205;SDS011;3136;48.788;9.772;2023-06-22T10:48:32;14.68;;;5.00;;
6205;SDS011;3136;48.788;9.772;2023-06-22T10:50:57;8.77;;;4.95;;
6205;SDS011;3136;48.788;9.772;2023-06-22T10:53:23;12.20;;;4.55;;
6205;SDS011;3136;48.788;9.772;2023-06-22T10:55:48;13.45;;;5.20;;
6205;SDS011;3136;48.788;9.772;2023-06-22T10:58:14;10.85;;;4.95;;
6205;SDS011;3136;48.788;9.772;2023-06-22T11:00:40;13.65;;;4.82;;
6205;SDS011;3136;48.788;9.772;2023-06-22T11:03:05;10.63;;;4.82;;
6205;SDS011;3136;48.788;9.772;2023-06-22T11:05:31;12.18;;;5.05;;
6205;SDS011;3136;48.788;9.772;2023-06-22T11:07:57;10.48;;;5.18;;
6205;SDS011;3136;48.788;9.772;2023-06-22T11:10:22;11.02;;;5.30;;
6205;SDS011;3136;48.788;9.772;2023-06-22T11:12:48;10.68;;;4.93;;
6205;SDS011;3136;48.788;9.772;2023-06-22T11:15:13;15.48;;;5.15;;
6205;SDS011;3136;48.788;9.772;2023-06-22T11:17:39;15.45;;;4.97;;
6205;SDS011;3136;48.788;9.772;2023-06-22T11:20:05;10.82;;;4.90;;
6205;SDS011;3136;48.788;9.772;2023-06-22T11:22:36;9.20;;;5.03;;
6205;SDS011;3136;48.788;9.772;2023-06-22T11:25:06;14.30;;;5.63;;
6205;SDS011;3136;48.788;9.772;2023-06-22T11:27:32;14.43;;;4.90;;
6205;SDS011;3136;48.788;9.772;2023-06-22T11:29:58;11.27;;;4.97;;
6205;SDS011;3136;48.788;9.772;2023-06-22T11:32:23;9.23;;;4.88;;
6205;SDS011;3136;48.788;9.772;2023-06-22T11:34:49;13.95;;;5.10;;
6205;SDS011;3136;48.788;9.772;2023-06-22T11:37:15;13.48;;;5.00;;
6205;SDS011;3136;48.788;9.772;2023-06-22T11:39:41;12.80;;;5.40;;
6205;SDS011;3136;48.788;9.772;2023-06-22T11:42:07;16.15;;;4.95;;
6205;SDS011;3136;48.788;9.772;2023-06-22T11:44:34;10.55;;;5.10;;
6205;SDS011;3136;48.788;9.772;2023-06-22T11:46:59;13.68;;;5.32;;
6205;SDS011;3136;48.788;9.772;2023-06-22T11:49:26;12.48;;;5.70;;
6205;SDS011;3136;48.788;9.772;2023-06-22T11:51:52;15.27;;;5.53;;
6205;SDS011;3136;48.788;9.772;2023-06-22T11:54:18;11.63;;;4.88;;
6205;SDS011;3136;48.788;9.772;2023-06-22T11:56:43;35.42;;;5.80;;
6205;SDS011;3136;48.788;9.772;2023-06-22T11:59:09;28.17;;;5.70;;
6205;SDS011;3136;48.788;9.772;2023-06-22T12:01:35;35.38;;;6.45;;
6205;SDS011;3136;48.788;9.772;2023-06-22T12:04:00;21.63;;;5.65;;
6205;SDS011;3136;48.788;9.772;2023-06-22T12:06:26;17.02;;;4.80;;
6205;SDS011;3136;48.788;9.772;2023-06-22T12:08:51;10.07;;;4.85;;
6205;SDS011;3136;48.788;9.772;2023-06-22T12:11:17;11.95;;;5.22;;
6205;SDS011;3136;48.788;9.772;2023-06-22T12:13:47;12.30;;;4.95;;
6205;SDS011;3136;48.788;9.772;2023-06-22T12:16:14;12.23;;;5.47;;
6205;SDS011;3136;48.788;9.772;2023-06-22T12:18:39;12.25;;;4.72;;
6205;SDS011;3136;48.788;9.772;2023-06-22T12:21:05;12.82;;;4.95;;
6205;SDS011;3136;48.788;9.772;2023-06-22T12:23:30;12.35;;;4.97;;
6205;SDS011;3136;48.788;9.772;2023-06-22T12:25:56;13.13;;;4.72;;
6205;SDS011;3136;48.788;9.772;2023-06-22T12:28:22;12.60;;;5.05;;
6205;SDS011;3136;48.788;9.772;2023-06-22T12:30:48;14.18;;;4.97;;
6205;SDS011;3136;48.788;9.772;2023-06-22T12:33:14;14.55;;;5.70;;
6205;SDS011;3136;48.788;9.772;2023-06-22T12:35:39;12.60;;;5.35;;
6205;SDS011;3136;48.788;9.772;2023-06-22T12:38:05;9.55;;;5.03;;
6205;SDS011;3136;48.788;9.772;2023-06-22T12:40:32;16.40;;;5.20;;
6205;SDS011;3136;48.788;9.772;2023-06-22T12:42:58;13.27;;;5.05;;
6205;SDS011;3136;48.788;9.772;2023-06-22T12:45:24;12.98;;;5.13;;
6205;SDS011;3136;48.788;9.772;2023-06-22T12:47:53;11.40;;;5.18;;
6205;SDS011;3136;48.788;9.772;2023-06-22T12:50:19;14.75;;;5.07;;
6205;SDS011;3136;48.788;9.772;2023-06-22T12:52:45;11.48;;;5.05;;
6205;SDS011;3136;48.788;9.772;2023-06-22T12:55:10;10.23;;;4.78;;
6205;SDS011;3136;48.788;9.772;2023-06-22T12:57:36;12.20;;;4.88;;
6205;SDS011;3136;48.788;9.772;2023-06-22T13:00:01;12.32;;;5.32;;
6205;SDS011;3136;48.788;9.772;2023-06-22T13:02:29;14.55;;;5.95;;
6205;SDS011;3136;48.788;9.772;2023-06-22T13:04:55;10.57;;;5.10;;
6205;SDS011;3136;48.788;9.772;2023-06-22T13:07:20;10.23;;;5.00;;
6205;SDS011;3136;48.788;9.772;2023-06-22T13:09:46;17.30;;;5.78;;
6205;SDS011;3136;48.788;9.772;2023-06-22T13:12:11;15.35;;;5.38;;
6205;SDS011;3136;48.788;9.772;2023-06-22T13:14:37;13.35;;;5.43;;
6205;SDS011;3136;48.788;9.772;2023-06-22T13:17:03;14.50;;;5.10;;
6205;SDS011;3136;48.788;9.772;2023-06-22T13:19:28;14.15;;;5.32;;
6205;SDS011;3136;48.788;9.772;2023-06-22T13:21:57;13.90;;;5.38;;
6205;SDS011;3136;48.788;9.772;2023-06-22T13:24:23;11.50;;;5.25;;
6205;SDS011;3136;48.788;9.772;2023-06-22T13:26:48;15.02;;;5.35;;
6205;SDS011;3136;48.788;9.772;2023-06-22T13:29:14;11.38;;;4.68;;
6205;SDS011;3136;48.788;9.772;2023-06-22T13:31:39;10.55;;;4.68;;
6205;SDS011;3136;48.788;9.772;2023-06-22T13:34:05;10.88;;;5.20;;
6205;SDS011;3136;48.788;9.772;2023-06-22T13:36:30;11.90;;;4.97;;
6205;SDS011;3136;48.788;9.772;2023-06-22T13:38:56;15.07;;;5.60;;
6205;SDS011;3136;48.788;9.772;2023-06-22T13:41:22;16.35;;;4.95;;
6205;SDS011;3136;48.788;9.772;2023-06-22T13:43:48;13.30;;;5.40;;
6205;SDS011;3136;48.788;9.772;2023-06-22T13:46:13;13.85;;;5.03;;
6205;SDS011;3136;48.788;9.772;2023-06-22T13:48:39;12.43;;;4.85;;
6205;SDS011;3136;48.788;9.772;2023-06-22T13:51:04;13.65;;;4.88;;
6205;SDS011;3136;48.788;9.772;2023-06-22T13:53:30;13.55;;;4.68;;
6205;SDS011;3136;48.788;9.772;2023-06-22T13:55:55;15.23;;;4.82;;
6205;SDS011;3136;48.788;9.772;2023-06-22T13:58:21;15.38;;;5.25;;
6205;SDS011;3136;48.788;9.772;2023-06-22T14:00:47;12.18;;;4.88;;
6205;SDS011;3136;48.788;9.772;2023-06-22T14:03:14;13.43;;;4.63;;
6205;SDS011;3136;48.788;9.772;2023-06-22T14:05:41;17.48;;;4.50;;
6205;SDS011;3136;48.788;9.772;2023-06-22T14:08:07;15.13;;;5.07;;
6205;SDS011;3136;48.788;9.772;2023-06-22T14:10:32;11.93;;;5.10;;
6205;SDS011;3136;48.788;9.772;2023-06-22T14:12:58;13.63;;;4.93;;
6205;SDS011;3136;48.788;9.772;2023-06-22T14:15:25;12.38;;;4.65;;
6205;SDS011;3136;48.788;9.772;2023-06-22T14:17:51;11.65;;;4.82;;
6205;SDS011;3136;48.788;9.772;2023-06-22T14:20:17;13.48;;;4.68;;
6205;SDS011;3136;48.788;9.772;2023-06-22T14:22:43;12.30;;;4.90;;
6205;SDS011;3136;48.788;9.772;2023-06-22T14:25:08;13.75;;;5.40;;
6205;SDS011;3136;48.788;9.772;2023-06-22T14:27:34;12.43;;;4.80;;
6205;SDS011;3136;48.788;9.772;2023-06-22T14:30:00;14.70;;;4.97;;
6205;SDS011;3136;48.788;9.772;2023-06-22T14:32:27;15.73;;;5.13;;
6205;SDS011;3136;48.788;9.772;2023-06-22T14:34:54;14.93;;;4.80;;
6205;SDS011;3136;48.788;9.772;2023-06-22T14:37:20;16.20;;;4.95;;
6205;SDS011;3136;48.788;9.772;2023-06-22T14:39:45;13.52;;;4.68;;
6205;SDS011;3136;48.788;9.772;2023-06-22T14:42:11;16.85;;;5.05;;
6205;SDS011;3136;48.788;9.772;2023-06-22T14:44:36;21.52;;;5.00;;
6205;SDS011;3136;48.788;9.772;2023-06-22T14:47:02;13.23;;;4.40;;
6205;SDS011;3136;48.788;9.772;2023-06-22T14:49:28;10.43;;;4.38;;
6205;SDS011;3136;48.788;9.772;2023-06-22T14:51:53;13.48;;;4.60;;
6205;SDS011;3136;48.788;9.772;2023-06-22T14:54:19;10.15;;;4.25;;
6205;SDS011;3136;48.788;9.772;2023-06-22T14:56:44;11.57;;;4.93;;
6205;SDS011;3136;48.788;9.772;2023-06-22T14:59:10;12.48;;;4.78;;
6205;SDS011;3136;48.788;9.772;2023-06-22T15:01:36;11.23;;;4.57;;
6205;SDS011;3136;48.788;9.772;2023-06-22T15:04:02;14.80;;;4.75;;
6205;SDS011;3136;48.788;9.772;2023-06-22T15:06:27;12.90;;;4.97;;
6205;SDS011;3136;48.788;9.772;2023-06-22T15:08:53;10.68;;;4.25;;